createdAt,value
2019-04-07T00:01:49.361Z,5.52
2019-04-07T00:04:23.898Z,5.45
2019-04-07T00:06:53.213Z,5.45
2019-04-07T00:09:24.430Z,5.47
2019-04-07T00:11:53.627Z,5.50
2019-04-07T00:14:28.146Z,5.41
2019-04-07T00:16:59.533Z,5.31
2019-04-07T00:19:30.661Z,5.28
2019-04-07T00:22:04.582Z,5.32
2019-04-07T00:24:34.268Z,5.24
2019-04-07T00:27:05.682Z,5.24
2019-04-07T00:29:36.915Z,5.25
2019-04-07T00:32:08.558Z,5.15
2019-04-07T00:34:39.823Z,4.99
2019-04-07T00:37:10.989Z,5.22
2019-04-07T00:39:42.296Z,5.29
2019-04-07T00:42:13.561Z,5.26
2019-04-07T00:44:45.485Z,5.08
2019-04-07T00:47:16.597Z,4.85
2019-04-07T00:49:47.757Z,5.12
2019-04-07T00:52:22.184Z,5.06
2019-04-07T00:54:54.586Z,4.94
2019-04-07T00:57:28.778Z,5.02
2019-04-07T01:00:00.510Z,5.15
2019-04-07T01:02:35.167Z,5.01
2019-04-07T01:05:08.842Z,4.75
2019-04-07T01:07:40.026Z,4.88
2019-04-07T01:10:11.175Z,4.81
2019-04-07T01:12:42.398Z,5.02
2019-04-07T01:15:14.042Z,5.04
2019-04-07T01:17:45.702Z,5.00
2019-04-07T01:20:16.992Z,4.93
2019-04-07T01:22:48.564Z,4.88
2019-04-07T01:25:18.398Z,4.74
2019-04-07T01:27:50.039Z,4.56
2019-04-07T01:30:21.599Z,4.61
2019-04-07T01:32:50.199Z,4.69
2019-04-07T01:35:21.400Z,4.64
2019-04-07T01:37:52.572Z,4.71
2019-04-07T01:40:23.513Z,4.87
2019-04-07T01:43:05.679Z,4.71
2019-04-07T01:45:48.823Z,4.70
2019-04-07T01:48:24.829Z,4.62
2019-04-07T01:50:55.139Z,4.71
2019-04-07T01:53:25.428Z,4.67
2019-04-07T01:55:58.698Z,4.66
2019-04-07T01:58:28.919Z,4.49
2019-04-07T02:01:05.395Z,4.45
2019-04-07T02:03:47.450Z,4.33
2019-04-07T02:06:34.822Z,4.42
2019-04-07T02:09:23.654Z,4.31
2019-04-07T02:12:05.304Z,4.27
2019-04-07T02:14:50.164Z,4.45
2019-04-07T02:17:21.010Z,4.38
2019-04-07T02:20:09.226Z,4.38
2019-04-07T02:22:39.383Z,4.47
2019-04-07T02:25:12.991Z,4.41
2019-04-07T02:27:59.133Z,4.13
2019-04-07T02:30:33.107Z,4.23
2019-04-07T02:33:16.418Z,4.30
2019-04-07T02:35:50.383Z,4.39
2019-04-07T02:38:21.071Z,4.32
2019-04-07T02:40:53.945Z,4.26
2019-04-07T02:43:30.924Z,4.44
2019-04-07T02:46:06.781Z,4.30
2019-04-07T02:48:37.013Z,4.25
2019-04-07T02:51:07.724Z,4.18
2019-04-07T02:53:39.133Z,4.15
2019-04-07T02:56:16.572Z,4.01
2019-04-07T02:58:49.793Z,3.97
2019-04-07T03:01:22.926Z,4.03
2019-04-07T03:03:59.933Z,3.83
2019-04-07T03:06:47.693Z,3.69
2019-04-07T03:09:22.395Z,3.80
2019-04-07T03:12:10.737Z,3.71
2019-04-07T03:14:41.352Z,3.73
2019-04-07T03:17:11.867Z,3.67
2019-04-07T03:19:47.451Z,3.70
2019-04-07T03:22:35.748Z,3.68
2019-04-07T03:25:11.178Z,3.53
2019-04-07T03:27:53.331Z,3.39
2019-04-07T03:30:27.089Z,3.47
2019-04-07T03:33:00.631Z,3.46
2019-04-07T03:35:32.437Z,3.43
2019-04-07T03:38:10.721Z,3.39
2019-04-07T03:40:41.258Z,3.51
2019-04-07T03:43:19.995Z,3.31
2019-04-07T03:46:02.231Z,3.08
2019-04-07T03:48:48.176Z,3.27
2019-04-07T03:51:20.761Z,3.27
2019-04-07T03:53:51.954Z,3.28
2019-04-07T03:56:37.408Z,3.34
2019-04-07T03:59:10.951Z,3.34
2019-04-07T04:01:49.747Z,3.38
2019-04-07T04:04:31.814Z,3.32
2019-04-07T04:07:18.073Z,3.37
2019-04-07T04:09:48.755Z,3.32
2019-04-07T04:12:34.264Z,3.23
2019-04-07T04:15:06.726Z,3.42
2019-04-07T04:17:35.427Z,3.38
2019-04-07T04:20:08.732Z,3.29
2019-04-07T04:22:39.378Z,3.05
2019-04-07T04:25:08.926Z,3.27
2019-04-07T04:27:38.746Z,3.33
2019-04-07T04:30:11.734Z,3.26
2019-04-07T04:32:41.448Z,3.26
2019-04-07T04:35:10.821Z,3.22
2019-04-07T04:37:44.211Z,3.46
2019-04-07T04:40:10.686Z,3.34
2019-04-07T04:42:39.210Z,3.40
2019-04-07T04:45:08.475Z,3.35
2019-04-07T04:47:37.698Z,3.23
2019-04-07T04:50:09.692Z,3.15
2019-04-07T04:52:38.497Z,3.14
2019-04-07T04:55:07.377Z,3.37
2019-04-07T04:57:36.001Z,3.37
2019-04-07T05:00:06.719Z,3.50
2019-04-07T05:02:35.292Z,3.50
2019-04-07T05:05:08.979Z,3.55
2019-04-07T05:07:48.845Z,3.68
2019-04-07T05:10:06.842Z,3.56
2019-04-07T05:12:35.904Z,3.51
2019-04-07T05:15:06.337Z,3.64
2019-04-07T05:17:35.098Z,3.79
2019-04-07T05:20:04.703Z,3.91
2019-04-07T05:22:33.329Z,4.05
2019-04-07T05:25:02.282Z,4.21
2019-04-07T05:27:30.861Z,4.30
2019-04-07T05:30:00.102Z,4.62
2019-04-07T05:32:28.719Z,4.70
2019-04-07T05:34:57.870Z,4.56
2019-04-07T05:37:26.849Z,4.63
2019-04-07T05:39:55.773Z,4.95
2019-04-07T05:42:25.220Z,4.90
2019-04-07T05:44:55.169Z,5.14
2019-04-07T05:47:23.785Z,5.10
2019-04-07T05:49:57.322Z,5.42
2019-04-07T05:52:22.811Z,5.57
2019-04-07T05:54:52.447Z,5.42
2019-04-07T05:57:21.250Z,5.40
2019-04-07T05:59:50.395Z,5.68
2019-04-07T06:02:19.010Z,5.87
2019-04-07T06:04:48.449Z,6.06
2019-04-07T06:07:17.743Z,5.99
2019-04-07T06:09:49.949Z,6.07
2019-04-07T06:12:17.277Z,6.37
2019-04-07T06:14:46.565Z,6.57
2019-04-07T06:17:16.277Z,6.83
2019-04-07T06:19:44.959Z,7.14
2019-04-07T06:22:13.441Z,7.37
2019-04-07T06:24:42.151Z,7.54
2019-04-07T06:27:10.986Z,7.57
2019-04-07T06:29:39.903Z,7.74
2019-04-07T06:32:10.386Z,7.93
2019-04-07T06:34:41.183Z,8.10
2019-04-07T06:37:09.946Z,8.29
2019-04-07T06:39:39.080Z,8.46
2019-04-07T06:42:07.609Z,8.55
2019-04-07T06:44:36.802Z,8.72
2019-04-07T06:47:17.618Z,8.88
2019-04-07T06:49:56.449Z,9.00
2019-04-07T06:52:42.074Z,9.09
2019-04-07T06:55:12.504Z,9.33
2019-04-07T06:57:42.860Z,9.43
2019-04-07T07:00:29.981Z,9.61
2019-04-07T07:03:06.162Z,9.61
2019-04-07T07:05:46.170Z,9.82
2019-04-07T07:08:42.557Z,10.09
2019-04-07T07:11:10.650Z,10.28
2019-04-07T07:13:49.970Z,10.37
2019-04-07T07:16:20.675Z,10.66
2019-04-07T07:19:01.769Z,10.82
2019-04-07T07:21:38.706Z,11.04
2019-04-07T07:24:04.992Z,11.23
2019-04-07T07:26:35.419Z,11.61
2019-04-07T07:29:06.283Z,11.46
2019-04-07T07:31:34.775Z,11.34
2019-04-07T07:34:03.774Z,11.35
2019-04-07T07:36:32.862Z,11.55
2019-04-07T07:39:03.295Z,11.66
2019-04-07T07:41:31.636Z,11.90
2019-04-07T07:44:02.629Z,12.43
2019-04-07T07:46:30.538Z,12.43
2019-04-07T07:49:01.909Z,12.36
2019-04-07T07:51:29.450Z,12.43
2019-04-07T07:54:00.728Z,12.56
2019-04-07T07:56:29.135Z,12.59
2019-04-07T07:58:59.875Z,12.77
2019-04-07T08:01:28.250Z,13.05
2019-04-07T08:03:57.218Z,13.13
2019-04-07T08:06:26.266Z,13.33
2019-04-07T08:09:07.449Z,13.39
2019-04-07T08:11:25.172Z,13.67
2019-04-07T08:13:53.695Z,13.59
2019-04-07T08:16:22.273Z,13.87
2019-04-07T08:18:51.031Z,13.73
2019-04-07T08:21:20.410Z,13.79
2019-04-07T08:23:49.192Z,14.05
2019-04-07T08:26:18.295Z,14.19
2019-04-07T08:28:46.944Z,14.32
2019-04-07T08:31:19.024Z,14.56
2019-04-07T08:33:46.440Z,14.71
2019-04-07T08:36:16.154Z,14.91
2019-04-07T08:38:45.523Z,14.66
2019-04-07T08:41:16.421Z,14.72
2019-04-07T08:43:45.216Z,14.98
2019-04-07T08:46:13.924Z,14.99
2019-04-07T08:48:42.558Z,15.35
2019-04-07T08:51:11.364Z,15.46
2019-04-07T08:53:43.571Z,15.52
2019-04-07T08:56:10.887Z,15.40
2019-04-07T08:58:40.147Z,15.21
2019-04-07T09:01:08.811Z,15.51
2019-04-07T09:03:37.493Z,15.52
2019-04-07T09:06:06.263Z,15.72
2019-04-07T09:08:37.962Z,15.79
2019-04-07T09:11:10.195Z,15.99
2019-04-07T09:13:39.532Z,16.07
2019-04-07T09:16:26.146Z,16.12
2019-04-07T09:19:09.187Z,16.29
2019-04-07T09:21:49.562Z,16.95
2019-04-07T09:24:33.517Z,17.84
2019-04-07T09:27:23.500Z,19.01
2019-04-07T09:30:10.404Z,19.81
2019-04-07T09:32:41.645Z,20.66
2019-04-07T09:35:27.528Z,20.83
2019-04-07T09:38:08.996Z,20.66
2019-04-07T09:40:40.359Z,21.43
2019-04-07T09:43:26.313Z,21.73
2019-04-07T09:46:03.413Z,21.64
2019-04-07T09:48:50.981Z,21.57
2019-04-07T09:51:26.555Z,19.90
2019-04-07T09:54:09.033Z,20.04
2019-04-07T09:56:42.828Z,19.72
2019-04-07T09:59:29.703Z,19.51
2019-04-07T10:02:14.711Z,19.53
2019-04-07T10:05:01.198Z,19.23
2019-04-07T10:07:47.844Z,18.96
2019-04-07T10:10:19.126Z,19.02
2019-04-07T10:12:58.677Z,18.76
2019-04-07T10:15:32.613Z,18.44
2019-04-07T10:18:15.552Z,18.18
2019-04-07T10:20:49.159Z,18.29
2019-04-07T10:23:37.534Z,18.34
2019-04-07T10:26:10.358Z,18.43
2019-04-07T10:28:41.895Z,18.46
2019-04-07T10:31:18.773Z,18.05
2019-04-07T10:33:56.317Z,18.09
2019-04-07T10:36:27.035Z,18.43
2019-04-07T10:38:57.419Z,18.52
2019-04-07T10:41:44.127Z,18.77
2019-04-07T10:44:23.832Z,18.96
2019-04-07T10:47:10.682Z,18.83
2019-04-07T10:49:43.307Z,19.06
2019-04-07T10:52:29.709Z,19.07
2019-04-07T10:55:16.738Z,19.00
2019-04-07T10:57:50.573Z,19.31
2019-04-07T11:00:41.217Z,19.24
2019-04-07T11:03:22.953Z,19.33
2019-04-07T11:05:56.032Z,19.77
2019-04-07T11:08:26.425Z,19.50
2019-04-07T11:10:59.943Z,19.83
2019-04-07T11:13:30.934Z,20.04
2019-04-07T11:16:01.417Z,20.50
2019-04-07T11:18:47.598Z,20.94
2019-04-07T11:21:22.584Z,21.54
2019-04-07T11:24:09.074Z,22.36
2019-04-07T11:26:55.166Z,22.56
2019-04-07T11:29:28.323Z,22.84
2019-04-07T11:32:07.635Z,23.36
2019-04-07T11:34:46.689Z,23.35
2019-04-07T11:37:20.103Z,23.41
2019-04-07T11:39:50.291Z,23.85
2019-04-07T11:42:24.037Z,24.46
2019-04-07T11:44:57.535Z,23.32
2019-04-07T11:47:45.969Z,22.75
2019-04-07T11:50:32.701Z,22.93
2019-04-07T11:53:09.126Z,22.91
2019-04-07T11:55:39.266Z,22.49
2019-04-07T11:58:15.932Z,22.46
2019-04-07T12:00:51.392Z,22.69
2019-04-07T12:03:28.002Z,22.99
2019-04-07T12:06:16.872Z,23.22
2019-04-07T12:09:04.885Z,23.23
2019-04-07T12:11:51.257Z,23.53
2019-04-07T12:14:24.502Z,24.11
2019-04-07T12:16:57.929Z,24.45
2019-04-07T12:19:38.727Z,25.60
2019-04-07T12:22:12.909Z,26.31
2019-04-07T12:24:44.462Z,26.92
2019-04-07T12:27:21.674Z,27.29
2019-04-07T12:29:55.325Z,28.00
2019-04-07T12:32:37.759Z,28.76
2019-04-07T12:35:08.149Z,29.02
2019-04-07T12:37:50.417Z,28.86
2019-04-07T12:40:36.765Z,28.59
2019-04-07T12:43:07.477Z,29.12
2019-04-07T12:45:38.475Z,27.03
2019-04-07T12:48:11.619Z,25.72
2019-04-07T12:50:56.277Z,27.20
2019-04-07T12:53:34.445Z,27.21
2019-04-07T12:56:13.472Z,27.51
2019-04-07T12:58:49.170Z,27.92
2019-04-07T13:01:29.875Z,28.17
2019-04-07T13:04:15.709Z,28.26
2019-04-07T13:06:57.834Z,28.59
2019-04-07T13:09:34.524Z,27.98
2019-04-07T13:12:07.713Z,26.39
2019-04-07T13:14:50.242Z,26.60
2019-04-07T13:17:37.989Z,27.46
2019-04-07T13:20:27.315Z,28.30
2019-04-07T13:22:58.746Z,28.48
2019-04-07T13:25:38.577Z,30.08
2019-04-07T13:28:09.594Z,29.04
2019-04-07T13:30:49.897Z,29.25
2019-04-07T13:33:45.804Z,29.94
2019-04-07T13:36:19.051Z,29.80
2019-04-07T13:38:50.129Z,29.38
2019-04-07T13:41:40.795Z,29.39
2019-04-07T13:44:07.597Z,29.59
2019-04-07T13:46:56.003Z,29.78
2019-04-07T13:49:42.426Z,29.45
2019-04-07T13:52:22.205Z,30.01
2019-04-07T13:55:09.182Z,29.94
2019-04-07T13:57:54.923Z,29.26
2019-04-07T14:00:40.589Z,29.61
2019-04-07T14:03:11.295Z,29.42
2019-04-07T14:05:47.900Z,28.84
2019-04-07T14:08:29.687Z,29.21
2019-04-07T14:11:14.443Z,29.50
2019-04-07T14:14:01.308Z,29.21
2019-04-07T14:16:32.312Z,29.42
2019-04-07T14:19:11.344Z,28.77
2019-04-07T14:21:41.466Z,28.27
2019-04-07T14:24:20.442Z,28.84
2019-04-07T14:26:51.599Z,28.99
2019-04-07T14:29:24.772Z,29.35
2019-04-07T14:32:11.958Z,29.00
2019-04-07T14:34:58.294Z,28.47
2019-04-07T14:37:28.521Z,28.56
2019-04-07T14:40:13.614Z,28.35
2019-04-07T14:42:49.629Z,28.45
2019-04-07T14:45:23.204Z,28.86
2019-04-07T14:47:53.567Z,28.38
2019-04-07T14:50:29.632Z,28.39
2019-04-07T14:53:00.735Z,28.20
2019-04-07T14:55:32.265Z,27.11
2019-04-07T14:58:15.291Z,27.35
2019-04-07T15:00:44.012Z,27.55
2019-04-07T15:03:12.542Z,27.46
2019-04-07T15:05:43.196Z,27.51
2019-04-07T15:08:14.051Z,27.78
2019-04-07T15:10:45.082Z,27.35
2019-04-07T15:13:15.985Z,26.64
2019-04-07T15:15:44.637Z,26.49
2019-04-07T15:18:13.292Z,27.12
2019-04-07T15:20:43.123Z,27.62
2019-04-07T15:23:12.221Z,27.95
2019-04-07T15:25:43.968Z,28.12
2019-04-07T15:28:11.371Z,27.85
2019-04-07T15:30:40.635Z,27.88
2019-04-07T15:33:11.819Z,27.61
2019-04-07T15:35:39.606Z,27.05
2019-04-07T15:38:08.801Z,26.51
2019-04-07T15:40:37.456Z,26.25
2019-04-07T15:43:08.818Z,26.24
2019-04-07T15:45:36.763Z,26.27
2019-04-07T15:48:05.619Z,25.97
2019-04-07T15:50:34.359Z,26.57
2019-04-07T15:53:02.863Z,25.93
2019-04-07T15:55:45.791Z,25.28
2019-04-07T15:58:02.013Z,25.63
2019-04-07T16:00:34.574Z,25.86
2019-04-07T16:03:01.325Z,25.65
2019-04-07T16:05:37.553Z,25.45
2019-04-07T16:08:01.114Z,25.44
2019-04-07T16:10:30.190Z,24.78
2019-04-07T16:12:59.515Z,24.16
2019-04-07T16:15:28.380Z,23.54
2019-04-07T16:17:56.969Z,22.61
2019-04-07T16:20:31.596Z,21.99
2019-04-07T16:22:56.110Z,21.50
2019-04-07T16:25:27.750Z,21.04
2019-04-07T16:27:55.570Z,20.47
2019-04-07T16:30:24.830Z,20.25
2019-04-07T16:32:53.723Z,20.12
2019-04-07T16:35:22.518Z,20.03
2019-04-07T16:37:52.038Z,19.64
2019-04-07T16:40:21.513Z,19.45
2019-04-07T16:43:04.782Z,19.34
2019-04-07T16:45:21.327Z,19.48
2019-04-07T16:47:51.093Z,19.02
2019-04-07T16:50:20.625Z,18.78
2019-04-07T16:52:50.002Z,18.37
2019-04-07T16:55:36.016Z,18.05
2019-04-07T16:58:06.118Z,17.80
2019-04-07T17:00:35.607Z,17.35
2019-04-07T17:03:05.589Z,17.27
2019-04-07T17:05:34.241Z,17.19
2019-04-07T17:08:02.871Z,17.22
2019-04-07T17:10:34.155Z,16.99
2019-04-07T17:13:13.889Z,17.00
2019-04-07T17:15:37.347Z,16.91
2019-04-07T17:18:07.241Z,16.67
2019-04-07T17:20:37.688Z,16.50
2019-04-07T17:23:07.018Z,16.17
2019-04-07T17:25:36.091Z,16.12
2019-04-07T17:28:06.320Z,15.93
2019-04-07T17:30:37.896Z,15.78
2019-04-07T17:33:06.508Z,15.78
2019-04-07T17:35:35.827Z,15.63
2019-04-07T17:38:07.058Z,15.27
2019-04-07T17:40:37.654Z,15.20
2019-04-07T17:43:25.301Z,15.07
2019-04-07T17:45:46.229Z,15.04
2019-04-07T17:48:17.121Z,14.90
2019-04-07T17:50:53.110Z,14.75
2019-04-07T17:53:23.406Z,14.63
2019-04-07T17:55:57.232Z,14.48
2019-04-07T17:58:36.724Z,14.22
2019-04-07T18:01:24.696Z,14.04
2019-04-07T18:04:00.565Z,13.92
2019-04-07T18:06:32.185Z,13.82
2019-04-07T18:09:12.054Z,13.66
2019-04-07T18:11:46.916Z,13.47
2019-04-07T18:14:33.107Z,13.33
2019-04-07T18:17:21.532Z,13.22
2019-04-07T18:19:51.728Z,13.18
2019-04-07T18:22:30.628Z,13.16
2019-04-07T18:25:02.749Z,13.08
2019-04-07T18:27:47.470Z,12.85
2019-04-07T18:30:14.724Z,12.74
2019-04-07T18:32:47.730Z,12.74
2019-04-07T18:35:23.871Z,12.63
2019-04-07T18:38:08.982Z,12.62
2019-04-07T18:40:41.127Z,12.46
2019-04-07T18:43:30.024Z,12.24
2019-04-07T18:46:11.933Z,12.09
2019-04-07T18:49:01.009Z,11.97
2019-04-07T18:51:49.341Z,11.82
2019-04-07T18:54:22.636Z,11.66
2019-04-07T18:56:55.874Z,11.63
2019-04-07T18:59:31.880Z,11.54
2019-04-07T19:02:18.271Z,11.39
2019-04-07T19:04:58.926Z,11.36
2019-04-07T19:07:30.466Z,11.26
2019-04-07T19:10:09.612Z,11.11
2019-04-07T19:12:36.392Z,10.99
2019-04-07T19:15:13.756Z,10.92
2019-04-07T19:17:44.734Z,10.95
2019-04-07T19:20:17.990Z,10.88
2019-04-07T19:23:02.951Z,10.80
2019-04-07T19:25:50.053Z,10.82
2019-04-07T19:28:38.257Z,10.66
2019-04-07T19:31:19.386Z,10.50
2019-04-07T19:33:56.659Z,10.33
2019-04-07T19:36:24.071Z,10.32
2019-04-07T19:39:00.698Z,10.32
2019-04-07T19:41:40.479Z,10.24
2019-04-07T19:44:16.652Z,10.07
2019-04-07T19:47:03.066Z,9.74
2019-04-07T19:49:39.028Z,9.68
2019-04-07T19:52:14.752Z,9.78
2019-04-07T19:55:00.131Z,9.66
2019-04-07T19:57:30.361Z,9.67
2019-04-07T20:00:22.246Z,9.61
2019-04-07T20:02:53.420Z,9.38
2019-04-07T20:05:40.799Z,9.46
2019-04-07T20:08:11.954Z,9.45
2019-04-07T20:10:42.597Z,9.41
2019-04-07T20:13:18.699Z,9.37
2019-04-07T20:15:57.680Z,9.26
2019-04-07T20:18:29.600Z,9.32
2019-04-07T20:21:17.066Z,9.21
2019-04-07T20:24:03.614Z,8.95
2019-04-07T20:26:52.526Z,8.89
2019-04-07T20:29:28.074Z,8.99
2019-04-07T20:31:58.740Z,8.77
2019-04-07T20:34:40.126Z,8.84
2019-04-07T20:37:08.299Z,8.85
2019-04-07T20:39:39.159Z,8.89
2019-04-07T20:42:26.857Z,8.74
2019-04-07T20:45:06.596Z,8.67
2019-04-07T20:47:38.250Z,8.65
2019-04-07T20:50:15.237Z,8.78
2019-04-07T20:52:50.183Z,8.60
2019-04-07T20:55:39.550Z,8.60
2019-04-07T20:58:17.597Z,8.43
2019-04-07T21:00:53.341Z,8.28
2019-04-07T21:03:22.615Z,8.18
2019-04-07T21:06:02.421Z,8.16
2019-04-07T21:08:44.350Z,8.16
2019-04-07T21:11:17.472Z,8.05
2019-04-07T21:13:54.554Z,8.10
2019-04-07T21:16:41.224Z,8.02
2019-04-07T21:19:17.294Z,7.95
2019-04-07T21:21:47.801Z,7.80
2019-04-07T21:24:19.878Z,7.76
2019-04-07T21:26:59.349Z,7.90
2019-04-07T21:29:30.540Z,7.84
2019-04-07T21:32:18.201Z,7.62
2019-04-07T21:35:02.156Z,7.50
2019-04-07T21:37:35.892Z,7.43
2019-04-07T21:40:26.545Z,7.46
2019-04-07T21:43:02.923Z,7.38
2019-04-07T21:45:50.080Z,7.47
2019-04-07T21:48:17.894Z,7.47
2019-04-07T21:50:54.855Z,7.40
2019-04-07T21:53:29.477Z,7.24
2019-04-07T21:56:02.291Z,7.23
2019-04-07T21:58:33.580Z,7.13
2019-04-07T22:01:16.643Z,7.10
2019-04-07T22:03:49.802Z,7.15
2019-04-07T22:06:20.150Z,7.28
2019-04-07T22:08:52.798Z,7.20
2019-04-07T22:11:24.736Z,7.27
2019-04-07T22:13:52.208Z,7.29
2019-04-07T22:16:23.940Z,7.18
2019-04-07T22:18:51.479Z,7.16
2019-04-07T22:21:22.357Z,7.14
2019-04-07T22:23:50.729Z,7.16
2019-04-07T22:26:20.377Z,7.20
2019-04-07T22:28:49.432Z,7.22
2019-04-07T22:31:20.615Z,7.24
2019-04-07T22:33:49.505Z,7.26
2019-04-07T22:36:18.851Z,7.27
2019-04-07T22:38:48.571Z,7.17
2019-04-07T22:41:17.639Z,7.18
2019-04-07T22:43:50.218Z,7.05
2019-04-07T22:46:21.916Z,6.98
2019-04-07T22:48:48.065Z,6.95
2019-04-07T22:51:16.774Z,6.89
2019-04-07T22:53:45.510Z,6.88
2019-04-07T22:56:14.218Z,6.67
2019-04-07T22:58:42.923Z,6.68
2019-04-07T23:01:11.589Z,6.76
2019-04-07T23:03:41.183Z,6.66
2019-04-07T23:06:10.616Z,6.78
2019-04-07T23:08:39.463Z,6.75
2019-04-07T23:11:08.493Z,6.65
2019-04-07T23:13:37.634Z,6.53
2019-04-07T23:16:13.065Z,6.48
2019-04-07T23:18:36.812Z,6.58
2019-04-07T23:21:05.513Z,6.36
2019-04-07T23:23:34.466Z,6.25
2019-04-07T23:26:03.408Z,6.28
2019-04-07T23:28:32.680Z,6.17
2019-04-07T23:31:01.330Z,6.05
2019-04-07T23:33:29.980Z,5.91
2019-04-07T23:35:59.621Z,5.84
2019-04-07T23:38:28.938Z,5.81
2019-04-07T23:40:59.310Z,5.93
2019-04-07T23:43:28.101Z,5.78
2019-04-07T23:45:56.751Z,5.78
2019-04-07T23:48:26.331Z,5.70
2019-04-07T23:50:56.096Z,5.51
2019-04-07T23:54:00.729Z,5.56
2019-04-07T23:56:29.494Z,5.41
2019-04-07T23:58:58.367Z,5.56
